sensor_id;sensor_type;location;lat;lon;timestamp;P1;durP1;ratioP1;P2;durP2;ratioP2
72771;SDS011;60894;42.544;1.516;2022-08-20T00:00:48;2.72;;;1.10;;
72771;SDS011;60894;42.544;1.516;2022-08-20T00:03:18;2.13;;;1.00;;
72771;SDS011;60894;42.544;1.516;2022-08-20T00:05:50;2.53;;;1.20;;
72771;SDS011;60894;42.544;1.516;2022-08-20T00:08:20;1.65;;;0.90;;
72771;SDS011;60894;42.544;1.516;2022-08-20T00:10:48;2.65;;;1.10;;
72771;SDS011;60894;42.544;1.516;2022-08-20T00:13:18;2.55;;;1.20;;
72771;SDS011;60894;42.544;1.516;2022-08-20T00:15:46;2.35;;;1.15;;
72771;SDS011;60894;42.544;1.516;2022-08-20T00:18:14;3.47;;;1.10;;
72771;SDS011;60894;42.544;1.516;2022-08-20T00:20:42;1.30;;;0.73;;
72771;SDS011;60894;42.544;1.516;2022-08-20T00:23:12;2.33;;;0.88;;
72771;SDS011;60894;42.544;1.516;2022-08-20T00:25:40;2.60;;;1.00;;
72771;SDS011;60894;42.544;1.516;2022-08-20T00:28:08;3.33;;;1.00;;
72771;SDS011;60894;42.544;1.516;2022-08-20T00:30:36;2.23;;;1.00;;
72771;SDS011;60894;42.544;1.516;2022-08-20T00:33:04;1.88;;;0.85;;
72771;SDS011;60894;42.544;1.516;2022-08-20T00:35:34;2.00;;;1.00;;
72771;SDS011;60894;42.544;1.516;2022-08-20T00:38:02;1.75;;;0.82;;
72771;SDS011;60894;42.544;1.516;2022-08-20T00:40:32;2.00;;;1.00;;
72771;SDS011;60894;42.544;1.516;2022-08-20T00:43:02;2.63;;;0.93;;
72771;SDS011;60894;42.544;1.516;2022-08-20T00:45:32;3.22;;;1.20;;
72771;SDS011;60894;42.544;1.516;2022-08-20T00:48:00;3.30;;;1.10;;
72771;SDS011;60894;42.544;1.516;2022-08-20T00:50:29;4.65;;;1.10;;
72771;SDS011;60894;42.544;1.516;2022-08-20T00:52:59;2.22;;;1.10;;
72771;SDS011;60894;42.544;1.516;2022-08-20T00:55:28;1.73;;;0.90;;
72771;SDS011;60894;42.544;1.516;2022-08-20T00:57:59;1.73;;;0.90;;
72771;SDS011;60894;42.544;1.516;2022-08-20T01:00:35;1.65;;;0.88;;
72771;SDS011;60894;42.544;1.516;2022-08-20T01:03:03;2.00;;;0.80;;
72771;SDS011;60894;42.544;1.516;2022-08-20T01:05:32;1.58;;;0.60;;
72771;SDS011;60894;42.544;1.516;2022-08-20T01:07:59;1.63;;;0.83;;
72771;SDS011;60894;42.544;1.516;2022-08-20T01:10:27;2.15;;;0.77;;
72771;SDS011;60894;42.544;1.516;2022-08-20T01:13:00;1.52;;;0.90;;
72771;SDS011;60894;42.544;1.516;2022-08-20T01:15:34;1.85;;;0.90;;
72771;SDS011;60894;42.544;1.516;2022-08-20T01:18:04;2.17;;;0.90;;
72771;SDS011;60894;42.544;1.516;2022-08-20T01:20:35;2.40;;;0.90;;
72771;SDS011;60894;42.544;1.516;2022-08-20T01:23:09;1.80;;;0.82;;
72771;SDS011;60894;42.544;1.516;2022-08-20T01:25:57;2.22;;;0.80;;
72771;SDS011;60894;42.544;1.516;2022-08-20T01:28:29;2.92;;;0.80;;
72771;SDS011;60894;42.544;1.516;2022-08-20T01:31:00;1.27;;;0.90;;
72771;SDS011;60894;42.544;1.516;2022-08-20T01:33:27;1.57;;;0.80;;
72771;SDS011;60894;42.544;1.516;2022-08-20T01:35:56;1.42;;;0.88;;
72771;SDS011;60894;42.544;1.516;2022-08-20T01:38:23;1.45;;;1.00;;
72771;SDS011;60894;42.544;1.516;2022-08-20T01:41:06;1.77;;;0.80;;
72771;SDS011;60894;42.544;1.516;2022-08-20T01:43:50;1.15;;;0.60;;
72771;SDS011;60894;42.544;1.516;2022-08-20T01:46:21;2.47;;;0.83;;
72771;SDS011;60894;42.544;1.516;2022-08-20T01:48:50;2.55;;;0.77;;
72771;SDS011;60894;42.544;1.516;2022-08-20T01:51:19;1.50;;;0.73;;
72771;SDS011;60894;42.544;1.516;2022-08-20T01:53:49;1.30;;;0.60;;
72771;SDS011;60894;42.544;1.516;2022-08-20T01:56:21;2.10;;;0.90;;
72771;SDS011;60894;42.544;1.516;2022-08-20T01:58:51;2.50;;;0.90;;
72771;SDS011;60894;42.544;1.516;2022-08-20T02:01:22;1.45;;;0.73;;
72771;SDS011;60894;42.544;1.516;2022-08-20T02:03:50;1.90;;;0.80;;
72771;SDS011;60894;42.544;1.516;2022-08-20T02:06:19;1.63;;;0.68;;
72771;SDS011;60894;42.544;1.516;2022-08-20T02:08:49;2.33;;;0.68;;
72771;SDS011;60894;42.544;1.516;2022-08-20T02:11:19;2.33;;;0.73;;
72771;SDS011;60894;42.544;1.516;2022-08-20T02:13:47;2.83;;;0.80;;
72771;SDS011;60894;42.544;1.516;2022-08-20T02:16:17;1.63;;;0.73;;
72771;SDS011;60894;42.544;1.516;2022-08-20T02:18:46;1.85;;;0.63;;
72771;SDS011;60894;42.544;1.516;2022-08-20T02:21:15;1.50;;;0.70;;
72771;SDS011;60894;42.544;1.516;2022-08-20T02:23:42;1.60;;;0.70;;
72771;SDS011;60894;42.544;1.516;2022-08-20T02:26:09;1.48;;;0.50;;
72771;SDS011;60894;42.544;1.516;2022-08-20T02:28:38;0.98;;;0.50;;
72771;SDS011;60894;42.544;1.516;2022-08-20T02:31:05;2.72;;;0.95;;
72771;SDS011;60894;42.544;1.516;2022-08-20T02:33:33;1.42;;;0.70;;
72771;SDS011;60894;42.544;1.516;2022-08-20T02:36:00;1.83;;;0.50;;
72771;SDS011;60894;42.544;1.516;2022-08-20T02:38:27;1.08;;;0.50;;
72771;SDS011;60894;42.544;1.516;2022-08-20T02:40:55;2.70;;;0.93;;
72771;SDS011;60894;42.544;1.516;2022-08-20T02:43:22;2.58;;;0.68;;
72771;SDS011;60894;42.544;1.516;2022-08-20T02:45:50;0.60;;;0.57;;
72771;SDS011;60894;42.544;1.516;2022-08-20T02:48:19;0.87;;;0.60;;
72771;SDS011;60894;42.544;1.516;2022-08-20T02:50:51;2.65;;;0.70;;
72771;SDS011;60894;42.544;1.516;2022-08-20T02:53:20;0.93;;;0.50;;
72771;SDS011;60894;42.544;1.516;2022-08-20T02:55:48;1.33;;;0.52;;
72771;SDS011;60894;42.544;1.516;2022-08-20T02:58:16;1.05;;;0.50;;
72771;SDS011;60894;42.544;1.516;2022-08-20T03:00:43;2.70;;;0.80;;
72771;SDS011;60894;42.544;1.516;2022-08-20T03:03:12;1.10;;;0.60;;
72771;SDS011;60894;42.544;1.516;2022-08-20T03:05:41;1.63;;;0.68;;
72771;SDS011;60894;42.544;1.516;2022-08-20T03:08:10;1.13;;;0.60;;
72771;SDS011;60894;42.544;1.516;2022-08-20T03:10:39;1.00;;;0.50;;
72771;SDS011;60894;42.544;1.516;2022-08-20T03:13:08;1.07;;;0.50;;
72771;SDS011;60894;42.544;1.516;2022-08-20T03:15:37;1.25;;;0.50;;
72771;SDS011;60894;42.544;1.516;2022-08-20T03:18:05;0.45;;;0.40;;
72771;SDS011;60894;42.544;1.516;2022-08-20T03:20:33;0.75;;;0.47;;
72771;SDS011;60894;42.544;1.516;2022-08-20T03:23:00;2.00;;;0.82;;
72771;SDS011;60894;42.544;1.516;2022-08-20T03:25:27;1.13;;;0.50;;
72771;SDS011;60894;42.544;1.516;2022-08-20T03:27:54;1.15;;;0.40;;
72771;SDS011;60894;42.544;1.516;2022-08-20T03:30:22;0.93;;;0.40;;
72771;SDS011;60894;42.544;1.516;2022-08-20T03:32:51;1.48;;;0.50;;
72771;SDS011;60894;42.544;1.516;2022-08-20T03:35:20;1.10;;;0.60;;
72771;SDS011;60894;42.544;1.516;2022-08-20T03:37:49;1.10;;;0.60;;
72771;SDS011;60894;42.544;1.516;2022-08-20T03:40:17;1.73;;;0.60;;
72771;SDS011;60894;42.544;1.516;2022-08-20T03:42:46;2.15;;;0.80;;
72771;SDS011;60894;42.544;1.516;2022-08-20T03:45:13;0.43;;;0.30;;
72771;SDS011;60894;42.544;1.516;2022-08-20T03:47:40;0.85;;;0.30;;
72771;SDS011;60894;42.544;1.516;2022-08-20T03:50:08;1.33;;;0.40;;
72771;SDS011;60894;42.544;1.516;2022-08-20T03:52:37;0.85;;;0.40;;
72771;SDS011;60894;42.544;1.516;2022-08-20T03:55:07;1.95;;;0.40;;
72771;SDS011;60894;42.544;1.516;2022-08-20T03:57:34;1.05;;;0.40;;
72771;SDS011;60894;42.544;1.516;2022-08-20T04:00:09;1.05;;;0.50;;
72771;SDS011;60894;42.544;1.516;2022-08-20T04:02:37;0.93;;;0.50;;
72771;SDS011;60894;42.544;1.516;2022-08-20T04:05:05;0.65;;;0.40;;
72771;SDS011;60894;42.544;1.516;2022-08-20T04:07:32;0.55;;;0.38;;
72771;SDS011;60894;42.544;1.516;2022-08-20T04:10:03;1.13;;;0.50;;
72771;SDS011;60894;42.544;1.516;2022-08-20T04:12:34;1.23;;;0.50;;
72771;SDS011;60894;42.544;1.516;2022-08-20T04:15:06;1.13;;;0.40;;
72771;SDS011;60894;42.544;1.516;2022-08-20T04:17:35;0.65;;;0.40;;
72771;SDS011;60894;42.544;1.516;2022-08-20T04:20:04;0.98;;;0.30;;
72771;SDS011;60894;42.544;1.516;2022-08-20T04:22:31;1.35;;;0.40;;
72771;SDS011;60894;42.544;1.516;2022-08-20T04:24:58;0.60;;;0.43;;
72771;SDS011;60894;42.544;1.516;2022-08-20T04:27:27;2.20;;;0.43;;
72771;SDS011;60894;42.544;1.516;2022-08-20T04:29:56;1.10;;;0.40;;
72771;SDS011;60894;42.544;1.516;2022-08-20T04:32:24;2.55;;;0.65;;
72771;SDS011;60894;42.544;1.516;2022-08-20T04:34:51;0.25;;;0.20;;
72771;SDS011;60894;42.544;1.516;2022-08-20T04:37:18;0.60;;;0.40;;
72771;SDS011;60894;42.544;1.516;2022-08-20T04:39:46;1.13;;;0.50;;
72771;SDS011;60894;42.544;1.516;2022-08-20T04:42:36;1.30;;;0.38;;
72771;SDS011;60894;42.544;1.516;2022-08-20T04:45:03;0.93;;;0.43;;
72771;SDS011;60894;42.544;1.516;2022-08-20T04:47:32;2.20;;;0.50;;
72771;SDS011;60894;42.544;1.516;2022-08-20T04:50:00;0.77;;;0.40;;
72771;SDS011;60894;42.544;1.516;2022-08-20T04:52:27;1.43;;;0.60;;
72771;SDS011;60894;42.544;1.516;2022-08-20T04:54:57;1.48;;;0.60;;
72771;SDS011;60894;42.544;1.516;2022-08-20T04:57:23;1.85;;;0.50;;
72771;SDS011;60894;42.544;1.516;2022-08-20T04:59:52;0.60;;;0.40;;
72771;SDS011;60894;42.544;1.516;2022-08-20T05:02:20;1.75;;;0.50;;
72771;SDS011;60894;42.544;1.516;2022-08-20T05:04:47;0.60;;;0.37;;
72771;SDS011;60894;42.544;1.516;2022-08-20T05:07:14;1.77;;;0.60;;
72771;SDS011;60894;42.544;1.516;2022-08-20T05:09:43;0.90;;;0.50;;
72771;SDS011;60894;42.544;1.516;2022-08-20T05:12:11;1.20;;;0.40;;
72771;SDS011;60894;42.544;1.516;2022-08-20T05:14:39;1.35;;;0.40;;
72771;SDS011;60894;42.544;1.516;2022-08-20T05:17:08;1.20;;;0.50;;
72771;SDS011;60894;42.544;1.516;2022-08-20T05:19:38;0.90;;;0.50;;
72771;SDS011;60894;42.544;1.516;2022-08-20T05:22:06;0.52;;;0.30;;
72771;SDS011;60894;42.544;1.516;2022-08-20T05:24:33;1.90;;;0.60;;
72771;SDS011;60894;42.544;1.516;2022-08-20T05:27:00;0.52;;;0.40;;
72771;SDS011;60894;42.544;1.516;2022-08-20T05:29:27;1.50;;;0.40;;
72771;SDS011;60894;42.544;1.516;2022-08-20T05:31:54;3.92;;;0.57;;
72771;SDS011;60894;42.544;1.516;2022-08-20T05:34:22;2.15;;;0.40;;
72771;SDS011;60894;42.544;1.516;2022-08-20T05:36:49;0.73;;;0.30;;
72771;SDS011;60894;42.544;1.516;2022-08-20T05:39:17;1.00;;;0.50;;
72771;SDS011;60894;42.544;1.516;2022-08-20T05:41:45;1.10;;;0.50;;
72771;SDS011;60894;42.544;1.516;2022-08-20T05:44:13;3.85;;;1.20;;
72771;SDS011;60894;42.544;1.516;2022-08-20T05:46:41;2.17;;;0.70;;
72771;SDS011;60894;42.544;1.516;2022-08-20T05:49:09;0.70;;;0.40;;
72771;SDS011;60894;42.544;1.516;2022-08-20T05:51:41;1.13;;;0.40;;
72771;SDS011;60894;42.544;1.516;2022-08-20T05:54:07;1.67;;;0.60;;
72771;SDS011;60894;42.544;1.516;2022-08-20T05:56:35;1.55;;;0.60;;
72771;SDS011;60894;42.544;1.516;2022-08-20T05:59:03;1.73;;;0.63;;
72771;SDS011;60894;42.544;1.516;2022-08-20T06:01:31;0.80;;;0.50;;
72771;SDS011;60894;42.544;1.516;2022-08-20T06:03:59;1.88;;;0.63;;
72771;SDS011;60894;42.544;1.516;2022-08-20T06:06:45;2.23;;;0.70;;
72771;SDS011;60894;42.544;1.516;2022-08-20T06:09:13;1.88;;;0.50;;
72771;SDS011;60894;42.544;1.516;2022-08-20T06:11:40;2.00;;;0.80;;
72771;SDS011;60894;42.544;1.516;2022-08-20T06:14:07;2.28;;;0.73;;
72771;SDS011;60894;42.544;1.516;2022-08-20T06:16:34;1.65;;;0.52;;
72771;SDS011;60894;42.544;1.516;2022-08-20T06:19:02;1.00;;;0.40;;
72771;SDS011;60894;42.544;1.516;2022-08-20T06:21:29;1.50;;;0.55;;
72771;SDS011;60894;42.544;1.516;2022-08-20T06:23:57;1.55;;;0.57;;
72771;SDS011;60894;42.544;1.516;2022-08-20T06:26:24;2.03;;;0.70;;
72771;SDS011;60894;42.544;1.516;2022-08-20T06:28:51;1.65;;;0.60;;
72771;SDS011;60894;42.544;1.516;2022-08-20T06:31:18;2.00;;;0.70;;
72771;SDS011;60894;42.544;1.516;2022-08-20T06:33:46;0.88;;;0.40;;
72771;SDS011;60894;42.544;1.516;2022-08-20T06:36:13;2.70;;;0.88;;
72771;SDS011;60894;42.544;1.516;2022-08-20T06:38:39;1.52;;;0.60;;
72771;SDS011;60894;42.544;1.516;2022-08-20T06:41:09;2.15;;;0.50;;
72771;SDS011;60894;42.544;1.516;2022-08-20T06:43:36;0.93;;;0.50;;
72771;SDS011;60894;42.544;1.516;2022-08-20T06:46:03;1.17;;;0.60;;
72771;SDS011;60894;42.544;1.516;2022-08-20T06:48:31;1.48;;;0.55;;
72771;SDS011;60894;42.544;1.516;2022-08-20T06:50:58;1.02;;;0.45;;
72771;SDS011;60894;42.544;1.516;2022-08-20T06:53:25;0.98;;;0.60;;
72771;SDS011;60894;42.544;1.516;2022-08-20T06:55:53;2.83;;;1.07;;
72771;SDS011;60894;42.544;1.516;2022-08-20T06:58:23;1.45;;;1.05;;
72771;SDS011;60894;42.544;1.516;2022-08-20T07:00:51;0.65;;;0.50;;
72771;SDS011;60894;42.544;1.516;2022-08-20T07:03:18;0.63;;;0.40;;
72771;SDS011;60894;42.544;1.516;2022-08-20T07:05:45;3.05;;;1.10;;
72771;SDS011;60894;42.544;1.516;2022-08-20T07:08:13;4.50;;;1.20;;
72771;SDS011;60894;42.544;1.516;2022-08-20T07:10:43;1.48;;;0.65;;
72771;SDS011;60894;42.544;1.516;2022-08-20T07:13:10;1.40;;;0.50;;
72771;SDS011;60894;42.544;1.516;2022-08-20T07:15:41;1.65;;;0.63;;
72771;SDS011;60894;42.544;1.516;2022-08-20T07:18:09;0.60;;;0.50;;
72771;SDS011;60894;42.544;1.516;2022-08-20T07:20:37;1.17;;;0.50;;
72771;SDS011;60894;42.544;1.516;2022-08-20T07:23:05;1.10;;;0.50;;
72771;SDS011;60894;42.544;1.516;2022-08-20T07:25:36;2.25;;;0.45;;
72771;SDS011;60894;42.544;1.516;2022-08-20T07:28:05;1.58;;;0.70;;
72771;SDS011;60894;42.544;1.516;2022-08-20T07:30:34;3.17;;;1.05;;
72771;SDS011;60894;42.544;1.516;2022-08-20T07:33:20;2.13;;;0.80;;
72771;SDS011;60894;42.544;1.516;2022-08-20T07:35:47;2.28;;;0.70;;
72771;SDS011;60894;42.544;1.516;2022-08-20T07:38:18;1.80;;;0.50;;
72771;SDS011;60894;42.544;1.516;2022-08-20T07:40:48;1.02;;;0.50;;
72771;SDS011;60894;42.544;1.516;2022-08-20T07:43:16;1.33;;;0.60;;
72771;SDS011;60894;42.544;1.516;2022-08-20T07:45:45;0.43;;;0.30;;
72771;SDS011;60894;42.544;1.516;2022-08-20T07:48:13;0.95;;;0.50;;
72771;SDS011;60894;42.544;1.516;2022-08-20T07:50:43;0.52;;;0.40;;
72771;SDS011;60894;42.544;1.516;2022-08-20T07:53:11;0.93;;;0.50;;
72771;SDS011;60894;42.544;1.516;2022-08-20T07:55:38;0.47;;;0.43;;
72771;SDS011;60894;42.544;1.516;2022-08-20T07:58:07;1.53;;;0.60;;
72771;SDS011;60894;42.544;1.516;2022-08-20T08:00:36;2.38;;;0.60;;
72771;SDS011;60894;42.544;1.516;2022-08-20T08:03:04;0.57;;;0.40;;
72771;SDS011;60894;42.544;1.516;2022-08-20T08:05:32;1.50;;;0.90;;
72771;SDS011;60894;42.544;1.516;2022-08-20T08:08:03;3.42;;;0.50;;
72771;SDS011;60894;42.544;1.516;2022-08-20T08:10:32;1.77;;;0.63;;
72771;SDS011;60894;42.544;1.516;2022-08-20T08:13:02;1.35;;;0.40;;
72771;SDS011;60894;42.544;1.516;2022-08-20T08:15:32;0.45;;;0.40;;
72771;SDS011;60894;42.544;1.516;2022-08-20T08:18:02;1.42;;;0.38;;
72771;SDS011;60894;42.544;1.516;2022-08-20T08:20:33;2.45;;;1.00;;
72771;SDS011;60894;42.544;1.516;2022-08-20T08:23:03;1.50;;;0.70;;
72771;SDS011;60894;42.544;1.516;2022-08-20T08:25:30;0.50;;;0.40;;
72771;SDS011;60894;42.544;1.516;2022-08-20T08:27:57;0.52;;;0.35;;
72771;SDS011;60894;42.544;1.516;2022-08-20T08:30:27;0.77;;;0.47;;
72771;SDS011;60894;42.544;1.516;2022-08-20T08:32:54;0.60;;;0.40;;
72771;SDS011;60894;42.544;1.516;2022-08-20T08:35:38;1.93;;;0.30;;
72771;SDS011;60894;42.544;1.516;2022-08-20T08:38:08;1.13;;;0.30;;
72771;SDS011;60894;42.544;1.516;2022-08-20T08:40:36;4.45;;;0.60;;
72771;SDS011;60894;42.544;1.516;2022-08-20T08:43:03;0.80;;;0.40;;
72771;SDS011;60894;42.544;1.516;2022-08-20T08:45:31;1.98;;;0.80;;
72771;SDS011;60894;42.544;1.516;2022-08-20T08:48:08;2.33;;;0.60;;
72771;SDS011;60894;42.544;1.516;2022-08-20T08:50:37;1.55;;;0.40;;
72771;SDS011;60894;42.544;1.516;2022-08-20T08:53:08;0.88;;;0.43;;
72771;SDS011;60894;42.544;1.516;2022-08-20T08:55:41;2.10;;;0.77;;
72771;SDS011;60894;42.544;1.516;2022-08-20T08:58:07;1.25;;;0.38;;
72771;SDS011;60894;42.544;1.516;2022-08-20T09:00:35;0.70;;;0.50;;
72771;SDS011;60894;42.544;1.516;2022-08-20T09:03:03;0.88;;;0.50;;
72771;SDS011;60894;42.544;1.516;2022-08-20T09:05:36;0.63;;;0.50;;
72771;SDS011;60894;42.544;1.516;2022-08-20T09:08:11;1.38;;;0.50;;
72771;SDS011;60894;42.544;1.516;2022-08-20T09:10:40;1.23;;;0.57;;
72771;SDS011;60894;42.544;1.516;2022-08-20T09:13:09;0.40;;;0.40;;
72771;SDS011;60894;42.544;1.516;2022-08-20T09:15:36;0.85;;;0.60;;
72771;SDS011;60894;42.544;1.516;2022-08-20T09:18:03;1.00;;;0.47;;
72771;SDS011;60894;42.544;1.516;2022-08-20T09:20:30;0.43;;;0.40;;
72771;SDS011;60894;42.544;1.516;2022-08-20T09:22:57;2.70;;;0.90;;
72771;SDS011;60894;42.544;1.516;2022-08-20T09:25:26;2.90;;;1.17;;
72771;SDS011;60894;42.544;1.516;2022-08-20T09:27:53;1.80;;;0.90;;
72771;SDS011;60894;42.544;1.516;2022-08-20T09:30:20;1.92;;;1.00;;
72771;SDS011;60894;42.544;1.516;2022-08-20T09:32:47;1.60;;;1.05;;
72771;SDS011;60894;42.544;1.516;2022-08-20T09:35:14;2.30;;;1.00;;
72771;SDS011;60894;42.544;1.516;2022-08-20T09:37:41;1.93;;;0.80;;
72771;SDS011;60894;42.544;1.516;2022-08-20T09:40:08;1.10;;;0.75;;
72771;SDS011;60894;42.544;1.516;2022-08-20T09:42:38;1.02;;;0.60;;
72771;SDS011;60894;42.544;1.516;2022-08-20T09:45:05;1.98;;;0.85;;
72771;SDS011;60894;42.544;1.516;2022-08-20T09:47:33;6.38;;;1.58;;
72771;SDS011;60894;42.544;1.516;2022-08-20T09:50:00;7.93;;;2.27;;
72771;SDS011;60894;42.544;1.516;2022-08-20T09:52:27;0.82;;;0.50;;
72771;SDS011;60894;42.544;1.516;2022-08-20T09:54:58;1.30;;;0.55;;
72771;SDS011;60894;42.544;1.516;2022-08-20T09:57:26;0.98;;;0.68;;
72771;SDS011;60894;42.544;1.516;2022-08-20T09:59:57;2.70;;;0.60;;
72771;SDS011;60894;42.544;1.516;2022-08-20T10:02:26;0.30;;;0.30;;
72771;SDS011;60894;42.544;1.516;2022-08-20T10:04:53;2.22;;;0.80;;
72771;SDS011;60894;42.544;1.516;2022-08-20T10:07:20;1.20;;;0.60;;
72771;SDS011;60894;42.544;1.516;2022-08-20T10:09:47;2.75;;;0.85;;
72771;SDS011;60894;42.544;1.516;2022-08-20T10:12:14;1.02;;;0.47;;
72771;SDS011;60894;42.544;1.516;2022-08-20T10:14:41;1.27;;;0.60;;
72771;SDS011;60894;42.544;1.516;2022-08-20T10:17:09;1.02;;;0.60;;
72771;SDS011;60894;42.544;1.516;2022-08-20T10:19:36;0.80;;;0.60;;
72771;SDS011;60894;42.544;1.516;2022-08-20T10:22:03;1.20;;;0.60;;
72771;SDS011;60894;42.544;1.516;2022-08-20T10:24:31;2.08;;;0.82;;
72771;SDS011;60894;42.544;1.516;2022-08-20T10:26:58;4.67;;;1.70;;
72771;SDS011;60894;42.544;1.516;2022-08-20T10:29:27;0.73;;;0.60;;
72771;SDS011;60894;42.544;1.516;2022-08-20T10:31:54;3.22;;;0.98;;
72771;SDS011;60894;42.544;1.516;2022-08-20T10:34:23;2.15;;;0.88;;
72771;SDS011;60894;42.544;1.516;2022-08-20T10:36:51;1.13;;;0.60;;
72771;SDS011;60894;42.544;1.516;2022-08-20T10:39:18;2.30;;;0.80;;
72771;SDS011;60894;42.544;1.516;2022-08-20T10:41:45;1.45;;;0.73;;
72771;SDS011;60894;42.544;1.516;2022-08-20T10:44:12;1.10;;;0.70;;
72771;SDS011;60894;42.544;1.516;2022-08-20T10:46:39;2.53;;;0.70;;
72771;SDS011;60894;42.544;1.516;2022-08-20T10:49:06;2.95;;;0.70;;
72771;SDS011;60894;42.544;1.516;2022-08-20T10:51:34;1.67;;;0.70;;
72771;SDS011;60894;42.544;1.516;2022-08-20T10:54:01;0.98;;;0.60;;
72771;SDS011;60894;42.544;1.516;2022-08-20T10:56:28;1.48;;;0.90;;
72771;SDS011;60894;42.544;1.516;2022-08-20T10:58:55;0.90;;;0.70;;
72771;SDS011;60894;42.544;1.516;2022-08-20T11:01:22;1.40;;;0.70;;
72771;SDS011;60894;42.544;1.516;2022-08-20T11:03:49;2.50;;;1.07;;
72771;SDS011;60894;42.544;1.516;2022-08-20T11:06:16;1.55;;;0.95;;
72771;SDS011;60894;42.544;1.516;2022-08-20T11:08:45;1.70;;;0.90;;
72771;SDS011;60894;42.544;1.516;2022-08-20T11:11:12;1.42;;;0.93;;
72771;SDS011;60894;42.544;1.516;2022-08-20T11:13:39;2.88;;;1.17;;
72771;SDS011;60894;42.544;1.516;2022-08-20T11:16:06;1.77;;;0.83;;
72771;SDS011;60894;42.544;1.516;2022-08-20T11:18:33;1.83;;;1.00;;
72771;SDS011;60894;42.544;1.516;2022-08-20T11:21:00;2.35;;;1.20;;
72771;SDS011;60894;42.544;1.516;2022-08-20T11:23:27;2.35;;;1.02;;
72771;SDS011;60894;42.544;1.516;2022-08-20T11:25:55;1.48;;;1.00;;
72771;SDS011;60894;42.544;1.516;2022-08-20T11:28:22;2.87;;;1.30;;
72771;SDS011;60894;42.544;1.516;2022-08-20T11:30:49;2.72;;;1.20;;
72771;SDS011;60894;42.544;1.516;2022-08-20T11:33:16;4.25;;;1.08;;
72771;SDS011;60894;42.544;1.516;2022-08-20T11:35:43;1.17;;;0.90;;
72771;SDS011;60894;42.544;1.516;2022-08-20T11:38:10;4.20;;;1.48;;
72771;SDS011;60894;42.544;1.516;2022-08-20T11:40:37;3.07;;;1.10;;
72771;SDS011;60894;42.544;1.516;2022-08-20T11:43:05;3.40;;;1.13;;
72771;SDS011;60894;42.544;1.516;2022-08-20T11:45:33;3.80;;;1.83;;
72771;SDS011;60894;42.544;1.516;2022-08-20T11:48:00;3.00;;;1.63;;
72771;SDS011;60894;42.544;1.516;2022-08-20T11:50:26;6.30;;;2.30;;
72771;SDS011;60894;42.544;1.516;2022-08-20T11:52:53;2.60;;;1.20;;
72771;SDS011;60894;42.544;1.516;2022-08-20T11:55:20;3.35;;;1.42;;
72771;SDS011;60894;42.544;1.516;2022-08-20T11:57:47;2.08;;;1.00;;
72771;SDS011;60894;42.544;1.516;2022-08-20T12:00:17;2.20;;;1.10;;
72771;SDS011;60894;42.544;1.516;2022-08-20T12:02:46;1.00;;;0.90;;
72771;SDS011;60894;42.544;1.516;2022-08-20T12:05:15;2.30;;;1.03;;
72771;SDS011;60894;42.544;1.516;2022-08-20T12:07:43;2.85;;;1.20;;
72771;SDS011;60894;42.544;1.516;2022-08-20T12:10:10;2.70;;;1.02;;
72771;SDS011;60894;42.544;1.516;2022-08-20T12:12:37;1.38;;;1.00;;
72771;SDS011;60894;42.544;1.516;2022-08-20T12:15:05;1.88;;;1.08;;
72771;SDS011;60894;42.544;1.516;2022-08-20T12:17:35;2.53;;;0.90;;
72771;SDS011;60894;42.544;1.516;2022-08-20T12:20:05;1.77;;;1.02;;
72771;SDS011;60894;42.544;1.516;2022-08-20T12:22:34;1.75;;;1.08;;
72771;SDS011;60894;42.544;1.516;2022-08-20T12:25:01;1.67;;;1.10;;
72771;SDS011;60894;42.544;1.516;2022-08-20T12:27:30;2.78;;;1.10;;
72771;SDS011;60894;42.544;1.516;2022-08-20T12:29:59;5.13;;;1.50;;
72771;SDS011;60894;42.544;1.516;2022-08-20T12:32:29;2.33;;;1.03;;
72771;SDS011;60894;42.544;1.516;2022-08-20T12:34:58;2.42;;;1.20;;
72771;SDS011;60894;42.544;1.516;2022-08-20T12:37:26;2.90;;;1.25;;
72771;SDS011;60894;42.544;1.516;2022-08-20T12:39:55;2.28;;;1.25;;
72771;SDS011;60894;42.544;1.516;2022-08-20T12:42:24;3.38;;;1.40;;
72771;SDS011;60894;42.544;1.516;2022-08-20T12:44:51;2.20;;;1.00;;
72771;SDS011;60894;42.544;1.516;2022-08-20T12:47:19;1.60;;;1.03;;
72771;SDS011;60894;42.544;1.516;2022-08-20T12:49:49;2.65;;;1.20;;
72771;SDS011;60894;42.544;1.516;2022-08-20T12:52:19;2.42;;;1.30;;
72771;SDS011;60894;42.544;1.516;2022-08-20T12:54:48;3.03;;;1.40;;
72771;SDS011;60894;42.544;1.516;2022-08-20T12:57:15;3.03;;;1.50;;
72771;SDS011;60894;42.544;1.516;2022-08-20T12:59:49;2.20;;;1.17;;
72771;SDS011;60894;42.544;1.516;2022-08-20T13:02:16;2.17;;;1.10;;
72771;SDS011;60894;42.544;1.516;2022-08-20T13:04:43;3.67;;;1.40;;
72771;SDS011;60894;42.544;1.516;2022-08-20T13:07:10;3.13;;;1.48;;
72771;SDS011;60894;42.544;1.516;2022-08-20T13:09:40;2.80;;;1.30;;
72771;SDS011;60894;42.544;1.516;2022-08-20T13:12:07;1.95;;;1.23;;
72771;SDS011;60894;42.544;1.516;2022-08-20T13:14:35;3.17;;;1.43;;
72771;SDS011;60894;42.544;1.516;2022-08-20T13:17:02;3.10;;;1.30;;
72771;SDS011;60894;42.544;1.516;2022-08-20T13:19:31;2.25;;;1.45;;
72771;SDS011;60894;42.544;1.516;2022-08-20T13:21:59;2.58;;;1.40;;
72771;SDS011;60894;42.544;1.516;2022-08-20T13:24:26;1.83;;;1.30;;
72771;SDS011;60894;42.544;1.516;2022-08-20T13:26:56;5.40;;;1.70;;
72771;SDS011;60894;42.544;1.516;2022-08-20T13:29:29;3.53;;;1.80;;
72771;SDS011;60894;42.544;1.516;2022-08-20T13:31:56;2.00;;;1.40;;
72771;SDS011;60894;42.544;1.516;2022-08-20T13:34:23;2.35;;;1.40;;
72771;SDS011;60894;42.544;1.516;2022-08-20T13:36:50;1.70;;;1.20;;
72771;SDS011;60894;42.544;1.516;2022-08-20T13:39:19;2.47;;;1.40;;
72771;SDS011;60894;42.544;1.516;2022-08-20T13:41:47;2.90;;;1.30;;
72771;SDS011;60894;42.544;1.516;2022-08-20T13:44:15;3.10;;;1.60;;
72771;SDS011;60894;42.544;1.516;2022-08-20T13:46:42;5.03;;;1.83;;
72771;SDS011;60894;42.544;1.516;2022-08-20T13:49:11;2.67;;;1.40;;
72771;SDS011;60894;42.544;1.516;2022-08-20T13:51:38;2.70;;;1.50;;
72771;SDS011;60894;42.544;1.516;2022-08-20T13:54:07;4.97;;;1.50;;
72771;SDS011;60894;42.544;1.516;2022-08-20T13:56:34;6.23;;;1.60;;
72771;SDS011;60894;42.544;1.516;2022-08-20T13:59:01;5.82;;;1.60;;
72771;SDS011;60894;42.544;1.516;2022-08-20T14:01:29;3.38;;;1.30;;
72771;SDS011;60894;42.544;1.516;2022-08-20T14:03:56;3.15;;;1.40;;
72771;SDS011;60894;42.544;1.516;2022-08-20T14:06:23;2.90;;;1.30;;
72771;SDS011;60894;42.544;1.516;2022-08-20T14:08:50;4.03;;;1.53;;
72771;SDS011;60894;42.544;1.516;2022-08-20T14:11:17;2.78;;;1.40;;
72771;SDS011;60894;42.544;1.516;2022-08-20T14:13:44;3.50;;;1.50;;
72771;SDS011;60894;42.544;1.516;2022-08-20T14:16:11;3.97;;;1.60;;
72771;SDS011;60894;42.544;1.516;2022-08-20T14:18:40;3.42;;;1.45;;
72771;SDS011;60894;42.544;1.516;2022-08-20T14:21:07;3.30;;;1.50;;
72771;SDS011;60894;42.544;1.516;2022-08-20T14:23:34;2.77;;;1.27;;
72771;SDS011;60894;42.544;1.516;2022-08-20T14:26:01;3.72;;;1.20;;
72771;SDS011;60894;42.544;1.516;2022-08-20T14:28:28;3.00;;;1.23;;
72771;SDS011;60894;42.544;1.516;2022-08-20T14:30:55;2.60;;;1.50;;
72771;SDS011;60894;42.544;1.516;2022-08-20T14:33:22;2.60;;;1.50;;
72771;SDS011;60894;42.544;1.516;2022-08-20T14:35:50;3.63;;;1.60;;
72771;SDS011;60894;42.544;1.516;2022-08-20T14:38:18;3.55;;;1.30;;
72771;SDS011;60894;42.544;1.516;2022-08-20T14:40:45;2.42;;;1.35;;
72771;SDS011;60894;42.544;1.516;2022-08-20T14:43:14;5.90;;;1.30;;
72771;SDS011;60894;42.544;1.516;2022-08-20T14:45:41;2.50;;;1.40;;
72771;SDS011;60894;42.544;1.516;2022-08-20T14:48:08;3.20;;;1.43;;
72771;SDS011;60894;42.544;1.516;2022-08-20T14:50:35;3.47;;;1.33;;
72771;SDS011;60894;42.544;1.516;2022-08-20T14:53:03;4.57;;;1.50;;
72771;SDS011;60894;42.544;1.516;2022-08-20T14:55:31;3.28;;;1.40;;